Open Full Screen Window  High Contrast Mode
Wind Gusting 00 knots
05
May 29, 2017 9:10 AM EDT
Weather Information
Wind Direction
  220 °
Wind Speed
  05 kt (6 mph)
Wind Gust
  00 kt (0 mph)
Altimeter
29.94 in
Visibility
10 SM
Temperature
19° C
66° F
Dewpoint
19° C
66° F
Humidity
100%
1hr Rain Fall
00.00 in.
24hr Rain Fall
00.07 in.
Sky Condition
Missing
VFR

METAR KI69 291310Z AUTO 22005KT 10SM 19/19 A2994 RMK AO2 T01910191

*Background is not an actual portrayal of the airport.
Missing Cloud Data